sensor_id;sensor_type;location;lat;lon;timestamp;pressure;altitude;pressure_sealevel;temperature;humidity
14273;BME280;7220;49.450;11.052;2022-08-30T04:16:24;98440.25;;;15.51;98.25
14273;BME280;7220;49.450;11.052;2022-08-30T04:20:25;98446.47;;;15.90;95.95
14273;BME280;7220;49.450;11.052;2022-08-30T04:24:26;98447.28;;;16.04;94.26
14273;BME280;7220;49.450;11.052;2022-08-30T04:28:26;98454.03;;;16.09;92.32
14273;BME280;7220;49.450;11.052;2022-08-30T04:32:27;98449.88;;;16.05;91.78
14273;BME280;7220;49.450;11.052;2022-08-30T04:36:27;98451.16;;;16.00;90.48
14273;BME280;7220;49.450;11.052;2022-08-30T04:40:28;98451.59;;;15.93;90.55
14273;BME280;7220;49.450;11.052;2022-08-30T04:44:30;98455.69;;;15.86;90.59
14273;BME280;7220;49.450;11.052;2022-08-30T04:48:30;98470.34;;;15.81;90.73
14273;BME280;7220;49.450;11.052;2022-08-30T04:52:31;98459.97;;;15.76;91.18
14273;BME280;7220;49.450;11.052;2022-08-30T04:56:31;98458.44;;;15.72;90.89
14273;BME280;7220;49.450;11.052;2022-08-30T05:00:32;98474.75;;;15.69;91.31
14273;BME280;7220;49.450;11.052;2022-08-30T05:04:32;98473.47;;;15.61;91.82
14273;BME280;7220;49.450;11.052;2022-08-30T05:08:33;98478.19;;;15.58;91.56
14273;BME280;7220;49.450;11.052;2022-08-30T05:12:33;98479.16;;;15.57;91.70
14273;BME280;7220;49.450;11.052;2022-08-30T05:16:34;98488.22;;;15.54;91.59
14273;BME280;7220;49.450;11.052;2022-08-30T05:20:36;98481.38;;;15.50;92.78
14273;BME280;7220;49.450;11.052;2022-08-30T05:24:36;98486.94;;;15.47;92.74
14273;BME280;7220;49.450;11.052;2022-08-30T05:28:37;98486.31;;;15.43;92.46
14273;BME280;7220;49.450;11.052;2022-08-30T05:32:37;98488.25;;;15.41;92.42
14273;BME280;7220;49.450;11.052;2022-08-30T05:36:38;98488.44;;;15.38;92.62
14273;BME280;7220;49.450;11.052;2022-08-30T05:40:41;98476.91;;;15.38;93.22
14273;BME280;7220;49.450;11.052;2022-08-30T05:44:41;98480.31;;;15.40;93.77
14273;BME280;7220;49.450;11.052;2022-08-30T05:48:41;98484.59;;;15.42;93.93
14273;BME280;7220;49.450;11.052;2022-08-30T05:52:42;98481.81;;;15.44;94.04
14273;BME280;7220;49.450;11.052;2022-08-30T05:56:44;98493.19;;;15.48;94.44
14273;BME280;7220;49.450;11.052;2022-08-30T06:00:44;98488.47;;;15.51;94.33
14273;BME280;7220;49.450;11.052;2022-08-30T06:04:45;98498.53;;;15.60;94.02
14273;BME280;7220;49.450;11.052;2022-08-30T06:08:45;98487.38;;;15.67;93.97
14273;BME280;7220;49.450;11.052;2022-08-30T06:12:47;98480.75;;;15.72;93.94
14273;BME280;7220;49.450;11.052;2022-08-30T06:16:48;98490.91;;;15.80;92.43
14273;BME280;7220;49.450;11.052;2022-08-30T06:20:49;98485.19;;;15.86;92.64
14273;BME280;7220;49.450;11.052;2022-08-30T06:24:50;98485.81;;;15.90;92.34
14273;BME280;7220;49.450;11.052;2022-08-30T06:28:50;98481.81;;;15.96;92.29
14273;BME280;7220;49.450;11.052;2022-08-30T06:32:51;98487.47;;;16.04;92.48
14273;BME280;7220;49.450;11.052;2022-08-30T06:36:51;98493.16;;;16.12;91.95
14273;BME280;7220;49.450;11.052;2022-08-30T06:40:51;98503.47;;;16.18;91.67
14273;BME280;7220;49.450;11.052;2022-08-30T06:44:54;98486.16;;;16.22;91.72
14273;BME280;7220;49.450;11.052;2022-08-30T06:48:55;98488.63;;;16.26;91.30
14273;BME280;7220;49.450;11.052;2022-08-30T06:52:55;98494.06;;;16.37;91.36
14273;BME280;7220;49.450;11.052;2022-08-30T06:56:58;98486.31;;;16.45;91.43
14273;BME280;7220;49.450;11.052;2022-08-30T07:00:59;98482.09;;;16.54;91.44
14273;BME280;7220;49.450;11.052;2022-08-30T07:05:00;98495.56;;;16.65;91.53
14273;BME280;7220;49.450;11.052;2022-08-30T07:09:01;98494.03;;;16.74;90.37
14273;BME280;7220;49.450;11.052;2022-08-30T07:13:01;98488.22;;;16.80;89.96
14273;BME280;7220;49.450;11.052;2022-08-30T07:17:02;98489.13;;;16.92;89.69
14273;BME280;7220;49.450;11.052;2022-08-30T07:21:35;98481.25;;;17.02;89.49
14273;BME280;7220;49.450;11.052;2022-08-30T07:25:37;98485.19;;;17.09;88.43
14273;BME280;7220;49.450;11.052;2022-08-30T07:29:38;98498.41;;;17.24;88.25
14273;BME280;7220;49.450;11.052;2022-08-30T07:33:38;98487.56;;;17.37;87.15
14273;BME280;7220;49.450;11.052;2022-08-30T07:37:39;98486.75;;;17.47;87.41
14273;BME280;7220;49.450;11.052;2022-08-30T07:41:40;98478.94;;;17.56;85.59
14273;BME280;7220;49.450;11.052;2022-08-30T07:45:40;98479.09;;;17.65;85.76
14273;BME280;7220;49.450;11.052;2022-08-30T07:49:41;98495.13;;;17.78;84.95
14273;BME280;7220;49.450;11.052;2022-08-30T07:53:41;98490.59;;;17.90;84.54
14273;BME280;7220;49.450;11.052;2022-08-30T07:57:42;98492.56;;;18.00;84.18
14273;BME280;7220;49.450;11.052;2022-08-30T08:01:42;98495.88;;;18.15;83.05
14273;BME280;7220;49.450;11.052;2022-08-30T08:05:43;98499.78;;;18.22;82.66
14273;BME280;7220;49.450;11.052;2022-08-30T08:09:44;98508.09;;;18.41;81.57
14273;BME280;7220;49.450;11.052;2022-08-30T08:13:46;98502.66;;;18.53;81.30
14273;BME280;7220;49.450;11.052;2022-08-30T08:17:47;98502.38;;;18.67;80.51
14273;BME280;7220;49.450;11.052;2022-08-30T08:21:47;98501.38;;;18.80;79.84
14273;BME280;7220;49.450;11.052;2022-08-30T08:25:47;98494.50;;;18.87;79.00
14273;BME280;7220;49.450;11.052;2022-08-30T08:29:48;98501.31;;;19.02;78.16
14273;BME280;7220;49.450;11.052;2022-08-30T08:33:48;98491.22;;;19.16;78.31
14273;BME280;7220;49.450;11.052;2022-08-30T08:37:48;98498.41;;;19.27;78.68
14273;BME280;7220;49.450;11.052;2022-08-30T08:41:52;98484.47;;;19.43;78.43
14273;BME280;7220;49.450;11.052;2022-08-30T08:46:12;98484.41;;;19.54;78.06
14273;BME280;7220;49.450;11.052;2022-08-30T08:50:17;98486.47;;;19.71;78.18
14273;BME280;7220;49.450;11.052;2022-08-30T08:54:37;98473.75;;;19.83;77.43
14273;BME280;7220;49.450;11.052;2022-08-30T08:58:43;98492.91;;;20.01;75.68
14273;BME280;7220;49.450;11.052;2022-08-30T09:02:54;98485.56;;;20.13;74.82
14273;BME280;7220;49.450;11.052;2022-08-30T09:07:03;98493.03;;;20.31;74.04
14273;BME280;7220;49.450;11.052;2022-08-30T09:11:06;98491.34;;;20.40;72.66
14273;BME280;7220;49.450;11.052;2022-08-30T09:15:21;98495.63;;;20.52;71.22
14273;BME280;7220;49.450;11.052;2022-08-30T09:19:43;98494.53;;;20.64;70.10
14273;BME280;7220;49.450;11.052;2022-08-30T09:23:56;98482.34;;;20.80;69.15
14273;BME280;7220;49.450;11.052;2022-08-30T09:28:12;98485.03;;;21.00;68.58
14273;BME280;7220;49.450;11.052;2022-08-30T09:32:22;98478.25;;;21.15;67.42
14273;BME280;7220;49.450;11.052;2022-08-30T09:36:32;98482.34;;;21.29;68.28
14273;BME280;7220;49.450;11.052;2022-08-30T09:44:38;98474.63;;;21.64;66.72
14273;BME280;7220;49.450;11.052;2022-08-30T09:48:41;98469.31;;;21.82;63.72
14273;BME280;7220;49.450;11.052;2022-08-30T09:52:50;98463.09;;;21.99;60.34
14273;BME280;7220;49.450;11.052;2022-08-30T10:01:39;98472.06;;;22.37;57.67
14273;BME280;7220;49.450;11.052;2022-08-30T10:09:59;98451.78;;;22.69;57.61
14273;BME280;7220;49.450;11.052;2022-08-30T10:18:45;98447.69;;;23.02;54.88
14273;BME280;7220;49.450;11.052;2022-08-30T10:27:10;98440.50;;;23.37;51.97
14273;BME280;7220;49.450;11.052;2022-08-30T10:31:35;98432.50;;;23.53;51.33
14273;BME280;7220;49.450;11.052;2022-08-30T10:35:49;98428.88;;;23.71;50.80
14273;BME280;7220;49.450;11.052;2022-08-30T10:39:54;98423.00;;;23.84;51.13
14273;BME280;7220;49.450;11.052;2022-08-30T10:48:18;98415.03;;;24.17;52.84
14273;BME280;7220;49.450;11.052;2022-08-30T10:52:38;98402.16;;;24.19;50.53
14273;BME280;7220;49.450;11.052;2022-08-30T10:56:42;98400.50;;;24.34;50.00
14273;BME280;7220;49.450;11.052;2022-08-30T11:00:51;98407.66;;;24.52;50.02
14273;BME280;7220;49.450;11.052;2022-08-30T11:13:34;98397.53;;;24.79;49.55
14273;BME280;7220;49.450;11.052;2022-08-30T11:18:02;98396.53;;;24.88;47.98
14273;BME280;7220;49.450;11.052;2022-08-30T11:30:45;98380.06;;;27.43;42.79
14273;BME280;7220;49.450;11.052;2022-08-30T11:42:48;98375.97;;;29.66;36.19
14273;BME280;7220;49.450;11.052;2022-08-30T11:46:51;98372.63;;;30.05;35.35
14273;BME280;7220;49.450;11.052;2022-08-30T11:55:39;98373.19;;;30.49;35.10
14273;BME280;7220;49.450;11.052;2022-08-30T12:04:03;98366.34;;;31.00;32.12
14273;BME280;7220;49.450;11.052;2022-08-30T12:20:44;98357.22;;;31.60;30.06
14273;BME280;7220;49.450;11.052;2022-08-30T12:24:49;98354.28;;;31.55;30.26
14273;BME280;7220;49.450;11.052;2022-08-30T12:29:06;98357.44;;;31.52;30.14
14273;BME280;7220;49.450;11.052;2022-08-30T12:33:12;98345.00;;;31.56;29.57
14273;BME280;7220;49.450;11.052;2022-08-30T12:41:27;98342.91;;;31.45;28.95
14273;BME280;7220;49.450;11.052;2022-08-30T12:45:36;98339.56;;;31.16;27.69
14273;BME280;7220;49.450;11.052;2022-08-30T12:49:39;98335.31;;;31.07;27.59
14273;BME280;7220;49.450;11.052;2022-08-30T12:53:41;98338.47;;;31.17;27.23
14273;BME280;7220;49.450;11.052;2022-08-30T13:02:42;98328.13;;;31.39;26.85
14273;BME280;7220;49.450;11.052;2022-08-30T13:06:49;98333.59;;;31.46;26.43
14273;BME280;7220;49.450;11.052;2022-08-30T13:10:59;98326.84;;;31.42;26.56
14273;BME280;7220;49.450;11.052;2022-08-30T13:15:16;98326.88;;;31.28;27.87
14273;BME280;7220;49.450;11.052;2022-08-30T13:20:19;98332.34;;;31.35;28.29
14273;BME280;7220;49.450;11.052;2022-08-30T13:24:01;98326.66;;;31.30;26.50
14273;BME280;7220;49.450;11.052;2022-08-30T13:28:02;98319.28;;;31.30;26.38
14273;BME280;7220;49.450;11.052;2022-08-30T13:32:03;98321.75;;;31.52;27.03
14273;BME280;7220;49.450;11.052;2022-08-30T13:36:04;98322.16;;;31.49;26.33
14273;BME280;7220;49.450;11.052;2022-08-30T13:40:04;98309.94;;;31.38;26.33
14273;BME280;7220;49.450;11.052;2022-08-30T13:44:05;98308.16;;;31.77;26.33
14273;BME280;7220;49.450;11.052;2022-08-30T13:48:05;98298.09;;;31.51;26.50
14273;BME280;7220;49.450;11.052;2022-08-30T13:52:07;98303.63;;;31.38;26.84
14273;BME280;7220;49.450;11.052;2022-08-30T13:56:08;98293.66;;;31.50;26.86
14273;BME280;7220;49.450;11.052;2022-08-30T14:00:13;98296.41;;;31.50;26.08
14273;BME280;7220;49.450;11.052;2022-08-30T14:04:14;98297.03;;;31.52;25.88
14273;BME280;7220;49.450;11.052;2022-08-30T14:08:17;98284.06;;;31.86;24.75
14273;BME280;7220;49.450;11.052;2022-08-30T14:12:17;98280.84;;;31.96;25.97
14273;BME280;7220;49.450;11.052;2022-08-30T14:16:18;98274.16;;;32.17;25.42
14273;BME280;7220;49.450;11.052;2022-08-30T14:20:19;98264.47;;;32.15;26.15
14273;BME280;7220;49.450;11.052;2022-08-30T14:24:19;98280.09;;;32.14;26.24
14273;BME280;7220;49.450;11.052;2022-08-30T14:28:20;98283.50;;;32.09;26.39
14273;BME280;7220;49.450;11.052;2022-08-30T14:32:20;98271.31;;;31.99;26.33
14273;BME280;7220;49.450;11.052;2022-08-30T14:36:21;98268.94;;;32.02;26.07
14273;BME280;7220;49.450;11.052;2022-08-30T14:40:21;98263.56;;;31.82;26.16
14273;BME280;7220;49.450;11.052;2022-08-30T14:44:22;98257.78;;;31.45;26.58
14273;BME280;7220;49.450;11.052;2022-08-30T14:48:23;98252.94;;;31.34;27.34
14273;BME280;7220;49.450;11.052;2022-08-30T14:52:23;98265.03;;;30.86;28.31
14273;BME280;7220;49.450;11.052;2022-08-30T14:56:24;98261.19;;;30.40;28.76
14273;BME280;7220;49.450;11.052;2022-08-30T15:00:25;98267.22;;;29.95;29.93
14273;BME280;7220;49.450;11.052;2022-08-30T15:04:25;98256.72;;;29.56;30.25
14273;BME280;7220;49.450;11.052;2022-08-30T15:08:25;98244.09;;;29.20;30.16
14273;BME280;7220;49.450;11.052;2022-08-30T15:12:26;98238.38;;;28.87;31.01
14273;BME280;7220;49.450;11.052;2022-08-30T15:16:29;98238.78;;;28.62;31.17
14273;BME280;7220;49.450;11.052;2022-08-30T15:20:30;98237.13;;;28.39;31.94
14273;BME280;7220;49.450;11.052;2022-08-30T15:24:32;98243.22;;;28.63;31.12
14273;BME280;7220;49.450;11.052;2022-08-30T15:28:32;98236.47;;;28.59;31.62
14273;BME280;7220;49.450;11.052;2022-08-30T15:32:32;98229.34;;;28.64;31.79
14273;BME280;7220;49.450;11.052;2022-08-30T15:36:33;98215.38;;;28.74;31.77
14273;BME280;7220;49.450;11.052;2022-08-30T15:40:34;98218.56;;;28.78;30.75
14273;BME280;7220;49.450;11.052;2022-08-30T15:44:34;98214.72;;;28.72;31.51
14273;BME280;7220;49.450;11.052;2022-08-30T15:48:34;98203.69;;;28.65;31.68
14273;BME280;7220;49.450;11.052;2022-08-30T15:52:35;98197.25;;;28.45;31.76
14273;BME280;7220;49.450;11.052;2022-08-30T15:56:35;98193.53;;;28.31;31.60
14273;BME280;7220;49.450;11.052;2022-08-30T16:00:35;98194.09;;;28.20;32.68
14273;BME280;7220;49.450;11.052;2022-08-30T16:04:36;98197.59;;;28.13;32.50
14273;BME280;7220;49.450;11.052;2022-08-30T16:08:37;98199.41;;;28.06;32.69
14273;BME280;7220;49.450;11.052;2022-08-30T16:12:37;98191.88;;;28.08;32.30
14273;BME280;7220;49.450;11.052;2022-08-30T16:16:37;98196.81;;;28.20;32.33
14273;BME280;7220;49.450;11.052;2022-08-30T16:20:42;98196.13;;;28.39;31.31
14273;BME280;7220;49.450;11.052;2022-08-30T16:24:43;98199.41;;;28.28;32.09
14273;BME280;7220;49.450;11.052;2022-08-30T16:28:45;98188.97;;;28.67;31.60
14273;BME280;7220;49.450;11.052;2022-08-30T16:32:46;98198.50;;;28.42;31.74
14273;BME280;7220;49.450;11.052;2022-08-30T16:36:48;98196.13;;;28.39;32.58
14273;BME280;7220;49.450;11.052;2022-08-30T16:40:49;98188.03;;;28.74;32.02
14273;BME280;7220;49.450;11.052;2022-08-30T16:44:50;98184.78;;;28.64;32.90
14273;BME280;7220;49.450;11.052;2022-08-30T16:48:50;98182.97;;;28.49;32.72
14273;BME280;7220;49.450;11.052;2022-08-30T16:52:50;98179.22;;;28.29;32.88
14273;BME280;7220;49.450;11.052;2022-08-30T16:56:51;98171.81;;;28.23;32.60
14273;BME280;7220;49.450;11.052;2022-08-30T17:00:51;98169.09;;;28.01;33.03
14273;BME280;7220;49.450;11.052;2022-08-30T17:04:52;98175.47;;;27.86;33.49
14273;BME280;7220;49.450;11.052;2022-08-30T17:08:52;98180.13;;;27.71;33.60
14273;BME280;7220;49.450;11.052;2022-08-30T17:12:53;98173.22;;;27.53;33.86
14273;BME280;7220;49.450;11.052;2022-08-30T17:16:54;98170.97;;;27.42;34.23
14273;BME280;7220;49.450;11.052;2022-08-30T17:20:54;98189.00;;;27.28;34.25
14273;BME280;7220;49.450;11.052;2022-08-30T17:24:55;98192.53;;;27.07;34.79
14273;BME280;7220;49.450;11.052;2022-08-30T17:28:55;98188.09;;;26.91;35.14
14273;BME280;7220;49.450;11.052;2022-08-30T17:32:55;98187.41;;;26.74;35.62
14273;BME280;7220;49.450;11.052;2022-08-30T17:36:56;98199.50;;;26.56;36.39
14273;BME280;7220;49.450;11.052;2022-08-30T17:41:03;98204.75;;;26.43;36.59
14273;BME280;7220;49.450;11.052;2022-08-30T17:45:06;98206.59;;;26.27;37.17
14273;BME280;7220;49.450;11.052;2022-08-30T17:49:07;98213.19;;;26.10;37.68
14273;BME280;7220;49.450;11.052;2022-08-30T17:53:07;98210.56;;;25.93;38.03
14273;BME280;7220;49.450;11.052;2022-08-30T17:57:08;98219.50;;;25.79;38.46
14273;BME280;7220;49.450;11.052;2022-08-30T18:01:12;98226.06;;;25.61;39.48
14273;BME280;7220;49.450;11.052;2022-08-30T18:05:13;98239.38;;;25.48;40.20
14273;BME280;7220;49.450;11.052;2022-08-30T18:09:14;98246.56;;;25.32;40.20
14273;BME280;7220;49.450;11.052;2022-08-30T18:13:14;98243.75;;;25.17;40.45
14273;BME280;7220;49.450;11.052;2022-08-30T18:17:14;98250.56;;;25.05;41.41
14273;BME280;7220;49.450;11.052;2022-08-30T18:21:17;98245.00;;;24.90;41.14
14273;BME280;7220;49.450;11.052;2022-08-30T18:25:18;98250.78;;;24.79;41.23
14273;BME280;7220;49.450;11.052;2022-08-30T18:29:18;98253.88;;;24.67;42.25
14273;BME280;7220;49.450;11.052;2022-08-30T18:33:18;98256.91;;;24.56;41.99
14273;BME280;7220;49.450;11.052;2022-08-30T18:37:18;98265.38;;;24.45;42.42
14273;BME280;7220;49.450;11.052;2022-08-30T18:41:19;98260.81;;;24.37;42.42
14273;BME280;7220;49.450;11.052;2022-08-30T18:45:20;98276.41;;;24.26;42.39
14273;BME280;7220;49.450;11.052;2022-08-30T18:49:22;98275.72;;;24.16;43.17
14273;BME280;7220;49.450;11.052;2022-08-30T18:53:22;98278.75;;;24.05;43.58
14273;BME280;7220;49.450;11.052;2022-08-30T18:57:23;98287.22;;;23.93;44.08
14273;BME280;7220;49.450;11.052;2022-08-30T19:01:23;98282.91;;;23.83;43.67
14273;BME280;7220;49.450;11.052;2022-08-30T19:05:23;98282.19;;;23.72;43.96
14273;BME280;7220;49.450;11.052;2022-08-30T19:09:24;98290.66;;;23.61;43.96
14273;BME280;7220;49.450;11.052;2022-08-30T19:13:24;98294.16;;;23.53;44.77
14273;BME280;7220;49.450;11.052;2022-08-30T19:17:25;98290.88;;;23.41;44.47
14273;BME280;7220;49.450;11.052;2022-08-30T19:21:25;98295.13;;;23.44;44.56
14273;BME280;7220;49.450;11.052;2022-08-30T19:25:25;98278.47;;;23.30;44.86
14273;BME280;7220;49.450;11.052;2022-08-30T19:29:26;98301.16;;;23.29;45.04
14273;BME280;7220;49.450;11.052;2022-08-30T19:33:27;98305.00;;;23.19;44.60
14273;BME280;7220;49.450;11.052;2022-08-30T19:37:27;98303.94;;;23.11;45.34
14273;BME280;7220;49.450;11.052;2022-08-30T19:41:28;98305.41;;;23.06;45.77
14273;BME280;7220;49.450;11.052;2022-08-30T19:45:28;98303.50;;;22.98;45.69
14273;BME280;7220;49.450;11.052;2022-08-30T19:49:28;98308.72;;;22.91;46.03
14273;BME280;7220;49.450;11.052;2022-08-30T19:53:29;98310.34;;;22.84;45.79
14273;BME280;7220;49.450;11.052;2022-08-30T19:57:29;98306.75;;;22.75;46.49
14273;BME280;7220;49.450;11.052;2022-08-30T20:01:29;98302.81;;;22.69;46.38
14273;BME280;7220;49.450;11.052;2022-08-30T20:05:30;98311.00;;;22.60;46.71
14273;BME280;7220;49.450;11.052;2022-08-30T20:09:31;98298.09;;;22.53;46.97
14273;BME280;7220;49.450;11.052;2022-08-30T20:13:32;98304.97;;;22.48;47.26
14273;BME280;7220;49.450;11.052;2022-08-30T20:17:32;98307.47;;;22.41;47.68
14273;BME280;7220;49.450;11.052;2022-08-30T20:21:32;98308.75;;;22.37;47.99
14273;BME280;7220;49.450;11.052;2022-08-30T20:25:33;98317.31;;;22.32;48.36
14273;BME280;7220;49.450;11.052;2022-08-30T20:29:34;98310.28;;;22.21;48.30
14273;BME280;7220;49.450;11.052;2022-08-30T20:33:35;98315.25;;;22.08;48.99
14273;BME280;7220;49.450;11.052;2022-08-30T20:37:40;98328.38;;;22.03;49.40
14273;BME280;7220;49.450;11.052;2022-08-30T20:41:40;98326.72;;;21.92;49.83
14273;BME280;7220;49.450;11.052;2022-08-30T20:45:41;98319.06;;;21.87;50.09
14273;BME280;7220;49.450;11.052;2022-08-30T20:49:41;98326.25;;;21.79;50.33
14273;BME280;7220;49.450;11.052;2022-08-30T20:53:43;98322.44;;;21.71;50.54
14273;BME280;7220;49.450;11.052;2022-08-30T20:57:43;98312.97;;;21.57;50.82
14273;BME280;7220;49.450;11.052;2022-08-30T21:01:43;98323.50;;;21.51;51.39
14273;BME280;7220;49.450;11.052;2022-08-30T21:05:44;98326.94;;;21.43;51.78
14273;BME280;7220;49.450;11.052;2022-08-30T21:09:44;98324.69;;;21.38;51.83
14273;BME280;7220;49.450;11.052;2022-08-30T21:13:44;98327.81;;;21.34;52.58
14273;BME280;7220;49.450;11.052;2022-08-30T21:17:46;98331.13;;;21.27;52.24
14273;BME280;7220;49.450;11.052;2022-08-30T21:21:46;98326.31;;;21.21;52.89
14273;BME280;7220;49.450;11.052;2022-08-30T21:25:47;98327.59;;;21.17;53.56
14273;BME280;7220;49.450;11.052;2022-08-30T21:29:47;98329.19;;;21.10;53.84
14273;BME280;7220;49.450;11.052;2022-08-30T21:33:49;98336.88;;;21.05;54.03
14273;BME280;7220;49.450;11.052;2022-08-30T21:37:50;98336.75;;;20.96;54.48
14273;BME280;7220;49.450;11.052;2022-08-30T21:41:52;98331.94;;;20.90;54.85
14273;BME280;7220;49.450;11.052;2022-08-30T21:45:54;98333.94;;;20.88;55.19
14273;BME280;7220;49.450;11.052;2022-08-30T21:49:54;98343.63;;;20.81;55.78
14273;BME280;7220;49.450;11.052;2022-08-30T21:53:56;98339.63;;;20.75;56.36
14273;BME280;7220;49.450;11.052;2022-08-30T21:57:56;98339.63;;;20.65;56.34
14273;BME280;7220;49.450;11.052;2022-08-30T22:01:57;98353.56;;;20.61;56.76
14273;BME280;7220;49.450;11.052;2022-08-30T22:05:58;98329.94;;;20.53;57.23
14273;BME280;7220;49.450;11.052;2022-08-30T22:09:58;98333.22;;;20.47;57.70
14273;BME280;7220;49.450;11.052;2022-08-30T22:13:59;98340.75;;;20.43;58.28
14273;BME280;7220;49.450;11.052;2022-08-30T22:17:59;98338.47;;;20.39;58.98
14273;BME280;7220;49.450;11.052;2022-08-30T22:22:00;98340.75;;;20.33;59.17
14273;BME280;7220;49.450;11.052;2022-08-30T22:26:00;98331.09;;;20.31;59.62
14273;BME280;7220;49.450;11.052;2022-08-30T22:30:01;98327.13;;;20.25;60.26
14273;BME280;7220;49.450;11.052;2022-08-30T22:34:02;98333.66;;;20.23;60.15
14273;BME280;7220;49.450;11.052;2022-08-30T22:38:03;98335.75;;;20.19;61.16
14273;BME280;7220;49.450;11.052;2022-08-30T22:42:03;98331.91;;;20.12;60.78
14273;BME280;7220;49.450;11.052;2022-08-30T22:46:04;98337.59;;;20.09;61.18
14273;BME280;7220;49.450;11.052;2022-08-30T22:50:06;98329.78;;;20.06;61.62
14273;BME280;7220;49.450;11.052;2022-08-30T22:54:07;98333.75;;;20.01;62.24
14273;BME280;7220;49.450;11.052;2022-08-30T22:58:08;98340.41;;;19.97;62.12
14273;BME280;7220;49.450;11.052;2022-08-30T23:02:08;98347.22;;;19.92;62.50
14273;BME280;7220;49.450;11.052;2022-08-30T23:06:09;98354.03;;;19.86;62.61
14273;BME280;7220;49.450;11.052;2022-08-30T23:10:10;98362.50;;;19.81;63.43
14273;BME280;7220;49.450;11.052;2022-08-30T23:14:11;98347.56;;;19.77;63.55
14273;BME280;7220;49.450;11.052;2022-08-30T23:18:12;98339.88;;;19.73;63.67
14273;BME280;7220;49.450;11.052;2022-08-30T23:22:13;98337.50;;;19.69;64.30
14273;BME280;7220;49.450;11.052;2022-08-30T23:26:13;98330.47;;;19.57;64.70
14273;BME280;7220;49.450;11.052;2022-08-30T23:30:33;98341.97;;;19.59;64.83
14273;BME280;7220;49.450;11.052;2022-08-30T23:34:51;98331.56;;;19.45;64.88
14273;BME280;7220;49.450;11.052;2022-08-30T23:39:11;98333.16;;;19.47;65.60
14273;BME280;7220;49.450;11.052;2022-08-30T23:43:30;98340.50;;;19.45;65.61
14273;BME280;7220;49.450;11.052;2022-08-30T23:47:49;98333.81;;;19.39;66.08
14273;BME280;7220;49.450;11.052;2022-08-30T23:52:07;98321.47;;;19.37;66.56
14273;BME280;7220;49.450;11.052;2022-08-30T23:56:26;98337.34;;;19.30;66.42
